Sweeney Granite Mountains, California Weather observations

Data are for 10 minute period ending at time listed.
 Day   Time   Solar   Ave.   Ave.  Ave.  Vector  Max.   Baro.   Total    
  of    of     Rad.   Air    Rel.  Wind   Wind   Wind  Press.  Precip.   
Year   Day            Temp.  Hum.  Speed  Dir.   Gust                    
2017   (PST)  Kw/m2    F      %     mph   deg.    mph    mb.     in.     
-------------------------------------------------------------------------
  83   16:10   0.36   64.8    15    2.4   190     8.5   873.1    0.00 
  83   16:20   0.33   66.0    14    3.1   213    10.1   873.0    0.00 
  83   16:30   0.29   64.7    15    3.6   219     8.0   872.9    0.00 
  83   16:40   0.26   64.7    16    4.2   215     8.0   872.8    0.00 
  83   16:50   0.21   63.9    17    4.1   184     8.2   872.8    0.00 
  83   17:00   0.06   62.6    18    2.6    93     7.2   872.7    0.00 
  83   17:10   0.02   61.1    19    2.2    65     5.8   872.7    0.00 
  83   17:20   0.03   60.5    20    1.7   158     5.9   872.6    0.00 
  83   17:30   0.03   60.2    21    1.9   142     5.6   872.6    0.00 
  83   17:40   0.03   59.3    22    3.5   102     6.1   872.6    0.00 
  83   17:50   0.01   58.6    23    2.4    85     3.8   872.7    0.00 
  83   18:00   0.00   58.2    23    1.8    71     3.5   872.6    0.00 
  83   18:10   0.00   57.9    23    2.4    85     3.2   872.5    0.00 
  83   18:20   0.00   57.7    23    1.7    82     3.6   872.4    0.00 
  83   18:30   0.00   56.9    24    1.8    44     2.8   872.3    0.00 
  83   18:40   0.00   55.0    26    2.8   278     3.8   872.4    0.00 
  83   18:50   0.00   56.0    25    2.8   281     4.1   872.4    0.00 
  83   19:00   0.00   55.6    26    2.2   272     2.9   872.3    0.00 
  83   19:10   0.00   53.7    28    1.8   280     3.8   872.3    0.00 
  83   19:20   0.00   52.4    30    2.7   283     4.3   872.5    0.00 
  83   19:30   0.00   56.1    25    2.4   270     5.6   872.4    0.00 
  83   19:40   0.00   54.7    26    1.9   268     3.4   872.4    0.00 
  83   19:50   0.00   55.4    26    2.6   272     5.5   872.5    0.00 
  83   20:00   0.00   54.4    27    2.1   289     3.8   872.6    0.00 
  83   20:10   0.00   54.8    26    2.5   273     4.2   872.8    0.00 
  83   20:20   0.00   55.6    25    2.0   284     3.7   872.8    0.00 
  83   20:30   0.00   55.4    25    2.6   262     5.7   872.7    0.00 
  83   20:40   0.00   55.5    25    3.4   279     7.2   872.7    0.00 
  83   20:50   0.00   54.3    27    2.6   303     4.8   872.7    0.00 
  83   21:00   0.00   55.1    25    1.5   272     3.4   872.6    0.00 
  83   21:10   0.00   54.3    26    1.6   295     2.8   872.5    0.00 
  83   21:20   0.00   51.7    31    1.0   314     2.3   872.4    0.00 
  83   21:30   0.00   50.6    32    2.8   277     3.6   872.4    0.00 
  83   21:40   0.00   50.6    32    3.5   279     4.2   872.4    0.00 
  83   21:50   0.00   51.4    31    4.1   274     5.2   872.2    0.00 
  83   22:00   0.00   50.9    30    1.8   142     4.3   872.1    0.00 
  83   22:10   0.00   51.0    31    2.0   295     3.4   872.1    0.00 
  83   22:20   0.00   53.8    26    1.6   243     4.4   872.0    0.00 
  83   22:30   0.00   53.4    27    1.1   316     2.9   871.9    0.00 
  83   22:40   0.00   52.5    28    3.1   281     4.1   871.8    0.00 
  83   22:50   0.00   51.8    29    2.4   251     3.9   871.7    0.00 
  83   23:00   0.00   52.3    29    1.5   290     3.0   871.6    0.00 
  83   23:10   0.00   52.2    29    1.6   288     3.2   871.5    0.00 
  83   23:20   0.00   51.7    30    1.1   260     3.1   871.4    0.00 
  83   23:30   0.00   52.1    29    1.6   123     3.0   871.3    0.00 
  83   23:40   0.00   53.4    28    1.9   116     2.6   871.2    0.00 
  83   23:50   0.00   51.3    34    4.3   282     6.6   871.1    0.00 
  84    0:00   0.00   53.1    34    3.3   253     5.3   871.0    0.00 
  84    0:10   0.00   53.4    34    2.0   279     4.1   870.8    0.00 
  84    0:20   0.00   52.8    31    3.1   278     4.3   870.7    0.00 
  84    0:30   0.00   52.9    31    1.2   264     2.0   870.6    0.00 
  84    0:40   0.00   50.6    36    1.5   256     2.5   870.5    0.00 
  84    0:50   0.00   50.3    36    1.7   292     2.6   870.4    0.00 
  84    1:00   0.00   51.6    34    1.7   295     2.8   870.3    0.00 
  84    1:10   0.00   51.4    35    1.2   286     2.0   870.2    0.00 
  84    1:20   0.00   51.0    35    0.3   277     0.9   870.1    0.00 
  84    1:30   0.00   49.4    40    0.6   274     3.2   870.0    0.00 
  84    1:40   0.00   50.4    38    2.3   283     3.3   869.9    0.00 
  84    1:50   0.00   49.9    40    1.6   300     2.8   869.9    0.00 
  84    2:00   0.00   51.1    36    1.0   204     2.4   869.8    0.00 
  84    2:10   0.00   51.7    34    2.0   201     5.2   869.9    0.00 
  84    2:20   0.00   52.2    33    1.4   262     4.2   869.8    0.00 
  84    2:30   0.00   52.5    34    0.9   334     3.1   869.8    0.00 
  84    2:40   0.00   51.9    38    4.8   299     8.8   869.7    0.00 
  84    2:50   0.00   53.1    38    6.2   312    14.6   869.5    0.00 
  84    3:00   0.00   53.4    40   10.4   307    13.9   869.5    0.00 
  84    3:10   0.00   51.7    41    9.8   305    17.2   869.4    0.00 
  84    3:20   0.00   52.5    43   13.2   301    19.2   869.2    0.00 
  84    3:30   0.00   53.5    43   13.4   299    20.7   869.0    0.00 
  84    3:40   0.00   53.4    41   13.6   302    20.0   868.9    0.00 
  84    3:50   0.00   52.6    43   12.4   292    20.8   869.1    0.00 
  84    4:00   0.00   50.7    51    9.8   278    16.5   869.1    0.00 
  84    4:10   0.00   52.0    42   15.3   300    21.5   868.8    0.00 
  84    4:20   0.00   51.5    48   14.2   293    26.5   868.7    0.00 
  84    4:30   0.00   52.7    43    9.8   276    17.5   868.4    0.00 
  84    4:40   0.00   53.7    39   13.2   280    22.6   868.4    0.00 
  84    4:50   0.00   53.0    40   17.6   287    31.5   868.3    0.00 
  84    5:00   0.00   52.3    40   16.6   283    29.1   868.2    0.00 
  84    5:10   0.00   52.4    39   18.3   279    32.6   868.2    0.00 
  84    5:20   0.00   52.4    40   19.9   282    29.5   868.1    0.00 
  84    5:30   0.00   52.1    45   22.9   293    35.7   867.9    0.00 
  84    5:40   0.00   52.6    46   23.0   277    38.7   868.0    0.00 
  84    5:50   0.00   52.2    48   22.6   274    34.4   868.1    0.00 
  84    6:00   0.00   51.2    50   19.3   286    30.4   868.3    0.00 
  84    6:10   0.03   50.6    51   17.7   299    28.9   868.5    0.00 
  84    6:20   0.07   50.4    53   16.5   305    28.1   868.4    0.00 
  84    6:30   0.10   50.2    54   21.1   304    30.0   868.3    0.00 
  84    6:40   0.07   50.1    55   23.3   306    33.5   868.4    0.00 
  84    6:50   0.05   49.4    57   22.9   299    31.8   868.4    0.00 
  84    7:00   0.20   50.7    55   22.5   294    34.6   868.3    0.00 
  84    7:10   0.24   51.9    52   20.6   305    28.5   868.3    0.00 
  84    7:20   0.27   51.8    52   20.5   304    29.4   868.5    0.00 
  84    7:30   0.31   52.2    51   19.4   293    28.4   868.4    0.00 
  84    7:40   0.35   53.0    49   19.8   302    31.2   868.5    0.00 
  84    7:50   0.39   53.1    49   18.9   300    28.8   868.5    0.00 
  84    8:00   0.42   53.0    48   17.8   302    33.0   868.5    0.00 
  84    8:10   0.46   53.1    47   17.5   312    27.1   868.7    0.00 
  84    8:20   0.49   52.8    49   19.2   306    35.1   868.6    0.00 
  84    8:30   0.53   52.6    49   23.8   312    41.6   868.4    0.00 
  84    8:40   0.56   52.3    50   25.7   308    40.2   868.3    0.00 
  84    8:50   0.59   52.0    50   27.9   304    43.4   868.3    0.00 
  84    9:00   0.63   52.4    49   25.3   299    42.3   868.4    0.00 
  84    9:10   0.66   52.4    50   28.3   301    50.2   868.2    0.00 
  84    9:20   0.69   52.3    50   27.9   306    45.2   868.2    0.00 
  84    9:30   0.72   52.6    51   28.0   302    42.3   868.1    0.00 
  84    9:40   0.74   53.1    49   24.6   303    35.4   868.4    0.00 
  84    9:50   0.77   53.5    48   22.5   304    35.4   868.5    0.00 
  84   10:00   0.79   53.6    48   20.2   305    33.2   868.7    0.00 
  84   10:10   0.82   53.7    47   15.9   304    30.4   869.0    0.00 
  84   10:20   0.84   54.2    47   12.4   295    24.9   869.0    0.00 
  84   10:30   0.85   54.2    47   13.3   293    28.6   868.9    0.00 
  84   10:40   0.86   54.6    47   14.7   291    27.9   868.8    0.00 
  84   10:50   0.87   55.5    44   13.4   297    28.0   868.8    0.00 
  84   11:00   0.88   55.2    45   16.3   291    27.2   869.0    0.00 
  84   11:10   0.89   55.1    44   12.0   272    30.5   869.0    0.00 
  84   11:20   0.89   55.4    45   13.0   291    24.1   868.9    0.00 
  84   11:30   0.90   56.0    42   16.6   285    30.9   868.9    0.00 
  84   11:40   0.91   56.3    42   16.1   294    28.4   868.9    0.00 
  84   11:50   0.91   56.9    41   13.5   290    28.6   868.8    0.00 
  84   12:00   0.90   56.7    41   16.8   289    28.0   868.8    0.00 
  84   12:10   0.90   57.5    39   15.6   296    29.7   868.7    0.00 
  84   12:20   0.90   57.7    39   17.9   296    26.6   868.7    0.00 
  84   12:30   0.91   57.5    39   14.1   304    22.5   868.6    0.00 
  84   12:40   0.89   58.5    38   11.0   282    19.5   868.5    0.00 
  84   12:50   0.86   57.8    38    7.4   271    17.8   868.4    0.00 
  84   13:00   0.89   58.5    37    8.5   249    21.5   868.3    0.00 
  84   13:10   0.76   58.6    37    6.3   112    12.3   868.2    0.00 
  84   13:20   0.69   59.4    36    6.5   252    15.6   868.2    0.00 
  84   13:30   0.67   58.5    37    6.5   144    13.4   868.2    0.00 
  84   13:40   0.91   59.0    36    5.8   151    12.1   868.1    0.00 
  84   13:50   0.84   60.4    34    6.7   284    15.2   868.1    0.00 
  84   14:00   0.68   60.1    34    7.0   222    14.8   868.1    0.00 
  84   14:10   0.68   59.8    34    7.1   256    17.2   868.0    0.00 
  84   14:20   0.39   59.8    34    5.7   265    22.0   868.0    0.00 
  84   14:30   0.56   58.6    36    5.6   324    21.8   867.8    0.00 
  84   14:40   0.75   60.9    33    6.2   353    17.0   867.8    0.00 
  84   14:50   0.69   61.5    32    6.1   310    13.4   867.8    0.00 
  84   15:00   0.56   61.2    33    3.7   178    14.3   867.7    0.00 
  84   15:10   0.56   59.8    34    5.4   171    12.6   867.7    0.00 
  84   15:20   0.35   60.5    33    9.3   262    19.4   867.6    0.00 
  84   15:30   0.33   58.4    36    9.4   281    19.0   867.6    0.00 
  84   15:40   0.51   60.0    34    8.4   257    16.4   867.4    0.00 
  84   15:50   0.30   60.6    33    4.0   182     8.2   867.4    0.00 
  84   16:00   0.23   59.0    35    5.3   108    13.7   867.4    0.00 

Return to Sweeney Granite Mountains graphs page.


Western Regional Climate Center,wrcc@dri.edu